#dbistima — V2PX5 — position and weather

sailwx.info

Track history (hours):
 
Tides and Currents Weather Stations Pressure Air Temp Water Temp Dewpoint Dewpoint Depression Visibility Wind Speed Wind Dir Waves Ship Positions

#dbistima

Last reported at 2015-Mar-29 00:25 UTC. Time now 2015-Mar-30 05:51 UTC.
Position N 57°48' E 010°30'.

MMSI: 304010972.

Date/timePositionNaut miles runAvg speedWind from/ knotsBaromVisibWave heightAir tempDewpointWater temp
2015-Mar-29 00:25N 57°48' E 010°30'7 8.0
2015-Mar-28 23:33N 57°49' E 010°43'9 9.2
2015-Mar-28 22:33N 57°43' E 010°57'1010.2
2015-Mar-28 21:33N 57°37' E 011°11'1110.8
2015-Mar-28 20:33N 57°29' E 011°26'1111.4
2015-Mar-28 19:33N 57°19' E 011°32'2311.4
2015-Mar-28 17:33N 56°57' E 011°46'1110.6
2015-Mar-28 16:33N 56°47' E 011°53'1110.6
2015-Mar-28 15:33N 56°37' E 011°57'13 9.8
2015-Mar-28 14:16N 56°25' E 012°02'710.3
2015-Mar-28 13:33N 56°17' E 012°06'1010.5
2015-Mar-28 12:33N 56°12' E 012°22'1010.0
2015-Mar-28 11:33N 56°05' E 012°36'1010.4
2015-Mar-28 10:33N 55°56' E 012°44'1010.0
2015-Mar-28 09:33N 55°46' E 012°42'10 9.8
2015-Mar-28 08:33N 55°36' E 012°42'9 9.5
2015-Mar-28 07:33N 55°27' E 012°42'9 9.1
2015-Mar-28 06:33N 55°18' E 012°45'10 9.9
2015-Mar-28 05:33N 55°16' E 013°02'2110.2
2015-Mar-28 03:32N 55°15' E 013°38'1110.4
2015-Mar-28 02:30N 55°14' E 013°57'1010.3
2015-Mar-28 01:33N 55°14' E 014°14'2010.1
2015-Mar-27 23:33N 55°28' E 014°40'1010.4
2015-Mar-27 22:33N 55°33' E 014°56'1010.2
2015-Mar-27 21:33N 55°38' E 015°11'  
2015-Mar-23 12:26N 55°38' E 015°23'1011.6
2015-Mar-23 11:33N 55°33' E 015°07'1111.5
2015-Mar-23 10:33N 55°26' E 014°50'1211.6
2015-Mar-23 09:33N 55°20' E 014°33'1211.7
2015-Mar-23 08:33N 55°11' E 014°19'1111.2
2015-Mar-23 07:33N 55°11' E 013°60'1111.4
2015-Mar-23 06:33N 55°12' E 013°40'2411.5
2015-Mar-23 04:26N 55°15' E 012°57'1011.1
2015-Mar-23 03:33N 55°17' E 012°41'9 9.1
2015-Mar-23 02:33N 55°26' E 012°40'10 9.5
2015-Mar-23 01:33N 55°36' E 012°42'1110.9
2015-Mar-23 00:33N 55°47' E 012°42'1110.6
2015-Mar-22 23:34N 55°57' E 012°38'18 8.9
2015-Mar-22 21:33N 56°09' E 012°14'1211.3
2015-Mar-22 20:30N 56°04' E 011°56'7 5.3
2015-Mar-22 19:12N 55°57' E 011°55'3 5.4
2015-Mar-22 18:33N 55°58' E 012°01'0 0.0
2015-Mar-22 17:32N 55°58' E 012°01'0 0.0
2015-Mar-22 16:16N 55°58' E 012°01'0 0.0
2015-Mar-22 15:28N 55°58' E 012°01'0 0.0
2015-Mar-22 11:22N 55°58' E 012°01'0 0.0
2015-Mar-22 08:22N 55°58' E 012°01'0 0.0
2015-Mar-22 05:16N 55°58' E 012°01'0 0.0
2015-Mar-22 04:22N 55°58' E 012°01'0 0.0
2015-Mar-22 03:28N 55°58' E 012°01'0 0.0
2015-Mar-22 02:16N 55°58' E 012°01'0 0.0
2015-Mar-22 01:25N 55°58' E 012°01'0 0.0
2015-Mar-22 00:28N 55°58' E 012°01'0 0.0
2015-Mar-21 23:28N 55°58' E 012°01'0 0.0
2015-Mar-21 22:33N 55°58' E 012°01'6 6.3
2015-Mar-21 21:33N 55°55' E 011°51'7 7.1
2015-Mar-21 20:31N 56°02' E 011°50'1 1.3
2015-Mar-21 19:32N 56°01' E 011°50'98 6.6
2015-Mar-21 04:33N 54°33' E 010°33'1010.2
2015-Mar-21 03:33N 54°29' E 010°17'9 8.7
2015-Mar-21 02:33N 54°22' E 010°09'3 3.0
2015-Mar-21 01:33N 54°22' E 010°03'5 5.3
2015-Mar-21 00:34N 54°21' E 009°54'23 7.6
2015-Mar-20 21:31N 54°09' E 009°21'7 6.6
2015-Mar-20 20:28N 54°02' E 009°18'7 7.5
2015-Mar-20 19:33N 53°56' E 009°13'4 3.6
2015-Mar-20 18:34N 53°53' E 009°08'1 0.5
2015-Mar-20 17:33N 53°53' E 009°09'1111.1
2015-Mar-20 16:33N 53°46' E 009°24'1111.1
2015-Mar-20 15:33N 53°37' E 009°34'9 9.2
2015-Mar-20 14:33N 53°33' E 009°48'4 3.6
2015-Mar-20 13:31N 53°31' E 009°54'0 0.0
2015-Mar-20 12:30N 53°31' E 009°54'0 0.0
2015-Mar-20 11:33N 53°31' E 009°54'0 0.0
2015-Mar-20 10:27N 53°31' E 009°54'0 0.0
2015-Mar-20 09:34N 53°31' E 009°54'0 0.0
2015-Mar-20 08:33N 53°31' E 009°54'0 0.0
2015-Mar-20 07:33N 53°31' E 009°54'0 0.0
2015-Mar-20 06:33N 53°31' E 009°54'0 0.0
2015-Mar-20 05:33N 53°31' E 009°54'0 0.0
2015-Mar-20 04:31N 53°31' E 009°54'0 0.0
2015-Mar-20 03:30N 53°31' E 009°54'0 0.0
2015-Mar-20 02:33N 53°31' E 009°54'0 0.0
2015-Mar-20 01:33N 53°31' E 009°54'0 0.0
2015-Mar-20 00:27N 53°31' E 009°54'0 0.0
2015-Mar-19 23:24N 53°31' E 009°54'0 0.0
2015-Mar-19 22:30N 53°31' E 009°54'0 0.0
2015-Mar-19 21:31N 53°31' E 009°54'0 0.0
2015-Mar-19 20:33N 53°31' E 009°54'0 0.0
2015-Mar-19 19:33N 53°31' E 009°54'0 0.0
2015-Mar-19 18:31N 53°31' E 009°54'0 0.0
2015-Mar-19 17:30N 53°31' E 009°54'0 0.0
2015-Mar-19 16:33N 53°31' E 009°54'0 0.0
2015-Mar-19 15:33N 53°31' E 009°54'0 0.0
2015-Mar-19 14:30N 53°31' E 009°54'0 0.0
2015-Mar-19 13:31N 53°31' E 009°54'0 0.0
2015-Mar-19 12:31N 53°31' E 009°54'0 0.0
2015-Mar-19 11:27N 53°31' E 009°54'0 0.0
2015-Mar-19 10:31N 53°31' E 009°54'0 0.0
2015-Mar-19 09:30N 53°31' E 009°54'0 0.0
2015-Mar-19 08:30N 53°31' E 009°54'0 0.0
2015-Mar-19 07:33N 53°31' E 009°54'0 0.0
2015-Mar-19 06:34N 53°31' E 009°54'0 0.0
2015-Mar-19 05:33N 53°31' E 009°54'5 5.0
2015-Mar-19 04:33N 53°34' E 009°46'8 8.0
2015-Mar-19 03:33N 53°37' E 009°34'3 2.5
2015-Mar-19 02:18N 53°39' E 009°31'0 0.0
2015-Mar-19 01:27N 53°39' E 009°31'0 0.0
2015-Mar-19 00:33N 53°39' E 009°31'  
Track history (hours):
 
Tides and Currents Weather Stations Pressure Air Temp Water Temp Dewpoint Dewpoint Depression Visibility Wind Speed Wind Dir Waves Ship Positions

#dbistima

Last reported at 2015-Mar-29 00:25 UTC. Time now 2015-Mar-30 05:51 UTC.
Position N 57°48' E 010°30'.

MMSI: 304010972.

Date/timePositionNaut miles runAvg speedWind from/ knotsBaromVisibWave heightAir tempDewpointWater temp
2015-Mar-29 00:25N 57°48' E 010°30'7 8.0
2015-Mar-28 23:33N 57°49' E 010°43'9 9.2
2015-Mar-28 22:33N 57°43' E 010°57'1010.2
2015-Mar-28 21:33N 57°37' E 011°11'1110.8
2015-Mar-28 20:33N 57°29' E 011°26'1111.4
2015-Mar-28 19:33N 57°19' E 011°32'2311.4
2015-Mar-28 17:33N 56°57' E 011°46'1110.6
2015-Mar-28 16:33N 56°47' E 011°53'1110.6
2015-Mar-28 15:33N 56°37' E 011°57'13 9.8
2015-Mar-28 14:16N 56°25' E 012°02'710.3
2015-Mar-28 13:33N 56°17' E 012°06'1010.5
2015-Mar-28 12:33N 56°12' E 012°22'1010.0
2015-Mar-28 11:33N 56°05' E 012°36'1010.4
2015-Mar-28 10:33N 55°56' E 012°44'1010.0
2015-Mar-28 09:33N 55°46' E 012°42'10 9.8
2015-Mar-28 08:33N 55°36' E 012°42'9 9.5
2015-Mar-28 07:33N 55°27' E 012°42'9 9.1
2015-Mar-28 06:33N 55°18' E 012°45'10 9.9
2015-Mar-28 05:33N 55°16' E 013°02'2110.2
2015-Mar-28 03:32N 55°15' E 013°38'1110.4
2015-Mar-28 02:30N 55°14' E 013°57'1010.3
2015-Mar-28 01:33N 55°14' E 014°14'2010.1
2015-Mar-27 23:33N 55°28' E 014°40'1010.4
2015-Mar-27 22:33N 55°33' E 014°56'1010.2
2015-Mar-27 21:33N 55°38' E 015°11'  
2015-Mar-23 12:26N 55°38' E 015°23'1011.6
2015-Mar-23 11:33N 55°33' E 015°07'1111.5
2015-Mar-23 10:33N 55°26' E 014°50'1211.6
2015-Mar-23 09:33N 55°20' E 014°33'1211.7
2015-Mar-23 08:33N 55°11' E 014°19'1111.2
2015-Mar-23 07:33N 55°11' E 013°60'1111.4
2015-Mar-23 06:33N 55°12' E 013°40'2411.5
2015-Mar-23 04:26N 55°15' E 012°57'1011.1
2015-Mar-23 03:33N 55°17' E 012°41'9 9.1
2015-Mar-23 02:33N 55°26' E 012°40'10 9.5
2015-Mar-23 01:33N 55°36' E 012°42'1110.9
2015-Mar-23 00:33N 55°47' E 012°42'1110.6
2015-Mar-22 23:34N 55°57' E 012°38'18 8.9
2015-Mar-22 21:33N 56°09' E 012°14'1211.3
2015-Mar-22 20:30N 56°04' E 011°56'7 5.3
2015-Mar-22 19:12N 55°57' E 011°55'3 5.4
2015-Mar-22 18:33N 55°58' E 012°01'0 0.0
2015-Mar-22 17:32N 55°58' E 012°01'0 0.0
2015-Mar-22 16:16N 55°58' E 012°01'0 0.0
2015-Mar-22 15:28N 55°58' E 012°01'0 0.0
2015-Mar-22 11:22N 55°58' E 012°01'0 0.0
2015-Mar-22 08:22N 55°58' E 012°01'0 0.0
2015-Mar-22 05:16N 55°58' E 012°01'0 0.0
2015-Mar-22 04:22N 55°58' E 012°01'0 0.0
2015-Mar-22 03:28N 55°58' E 012°01'0 0.0
2015-Mar-22 02:16N 55°58' E 012°01'0 0.0
2015-Mar-22 01:25N 55°58' E 012°01'0 0.0
2015-Mar-22 00:28N 55°58' E 012°01'0 0.0
2015-Mar-21 23:28N 55°58' E 012°01'0 0.0
2015-Mar-21 22:33N 55°58' E 012°01'6 6.3
2015-Mar-21 21:33N 55°55' E 011°51'7 7.1
2015-Mar-21 20:31N 56°02' E 011°50'1 1.3
2015-Mar-21 19:32N 56°01' E 011°50'98 6.6
2015-Mar-21 04:33N 54°33' E 010°33'1010.2
2015-Mar-21 03:33N 54°29' E 010°17'9 8.7
2015-Mar-21 02:33N 54°22' E 010°09'3 3.0
2015-Mar-21 01:33N 54°22' E 010°03'5 5.3
2015-Mar-21 00:34N 54°21' E 009°54'23 7.6
2015-Mar-20 21:31N 54°09' E 009°21'7 6.6
2015-Mar-20 20:28N 54°02' E 009°18'7 7.5
2015-Mar-20 19:33N 53°56' E 009°13'4 3.6
2015-Mar-20 18:34N 53°53' E 009°08'1 0.5
2015-Mar-20 17:33N 53°53' E 009°09'1111.1
2015-Mar-20 16:33N 53°46' E 009°24'1111.1
2015-Mar-20 15:33N 53°37' E 009°34'9 9.2
2015-Mar-20 14:33N 53°33' E 009°48'4 3.6
2015-Mar-20 13:31N 53°31' E 009°54'0 0.0
2015-Mar-20 12:30N 53°31' E 009°54'0 0.0
2015-Mar-20 11:33N 53°31' E 009°54'0 0.0
2015-Mar-20 10:27N 53°31' E 009°54'0 0.0
2015-Mar-20 09:34N 53°31' E 009°54'0 0.0
2015-Mar-20 08:33N 53°31' E 009°54'0 0.0
2015-Mar-20 07:33N 53°31' E 009°54'0 0.0
2015-Mar-20 06:33N 53°31' E 009°54'0 0.0
2015-Mar-20 05:33N 53°31' E 009°54'0 0.0
2015-Mar-20 04:31N 53°31' E 009°54'0 0.0
2015-Mar-20 03:30N 53°31' E 009°54'0 0.0
2015-Mar-20 02:33N 53°31' E 009°54'0 0.0
2015-Mar-20 01:33N 53°31' E 009°54'0 0.0
2015-Mar-20 00:27N 53°31' E 009°54'0 0.0
2015-Mar-19 23:24N 53°31' E 009°54'0 0.0
2015-Mar-19 22:30N 53°31' E 009°54'0 0.0
2015-Mar-19 21:31N 53°31' E 009°54'0 0.0
2015-Mar-19 20:33N 53°31' E 009°54'0 0.0
2015-Mar-19 19:33N 53°31' E 009°54'0 0.0
2015-Mar-19 18:31N 53°31' E 009°54'0 0.0
2015-Mar-19 17:30N 53°31' E 009°54'0 0.0
2015-Mar-19 16:33N 53°31' E 009°54'0 0.0
2015-Mar-19 15:33N 53°31' E 009°54'0 0.0
2015-Mar-19 14:30N 53°31' E 009°54'0 0.0
2015-Mar-19 13:31N 53°31' E 009°54'0 0.0
2015-Mar-19 12:31N 53°31' E 009°54'0 0.0
2015-Mar-19 11:27N 53°31' E 009°54'0 0.0
2015-Mar-19 10:31N 53°31' E 009°54'0 0.0
2015-Mar-19 09:30N 53°31' E 009°54'0 0.0
2015-Mar-19 08:30N 53°31' E 009°54'0 0.0
2015-Mar-19 07:33N 53°31' E 009°54'0 0.0
2015-Mar-19 06:34N 53°31' E 009°54'0 0.0
2015-Mar-19 05:33N 53°31' E 009°54'5 5.0
2015-Mar-19 04:33N 53°34' E 009°46'8 8.0
2015-Mar-19 03:33N 53°37' E 009°34'3 2.5
2015-Mar-19 02:18N 53°39' E 009°31'0 0.0
2015-Mar-19 01:27N 53°39' E 009°31'0 0.0
2015-Mar-19 00:33N 53°39' E 009°31'  

Dump ship's entire track history